DLH35M LPPT-EDDF
Flight info
| Callsign | DLH35M |
|---|---|
| Flight time | N/A |
| Altitude | 34000 |
| Route | IXIDA DCT TOSDI DCT ZMR DCT NUBLO/N0442F360 DCT RONSI DCT DELOG DCT PEXOD DCT DIDIG DCT TIRAV DCT ERJAZ DCT PIWIZ DCT TSU UN858 OQQAL DCT RANUX/N0442F370 DCT VALEK DCT LIPNI DCT LIMGO Z111 TUTOV/N0379F230 Z111 RAMOB RASVO1D |
| Aircraft | A321/M-SDE2E3FGIJ1LORWXYZ/HB1 |
Departure
| Time | 2026-05-01 12:03 |
|---|---|
| Airport | Lisbon Humberto Delgado Airport (LPPT) |
Arrival
| Time | N/A |
|---|---|
| Airport | Frankfurt Main Airport (EDDF) |
| Time | Latitude | Longitude | Altitude | Speed | Heading |
|---|---|---|---|---|---|
| 2026-05-01 11:50 | 38.77980 | -9.12955 | 329 ft | 0 kts | 303° |
| 2026-05-01 11:55 | 38.77978 | -9.12951 | 331 ft | 3 kts | 303° |
| 2026-05-01 11:55 | 38.77965 | -9.12922 | 330 ft | 4 kts | 290° |
| 2026-05-01 11:55 | 38.77959 | -9.12890 | 331 ft | 4 kts | 262° |
| 2026-05-01 11:56 | 38.77967 | -9.12865 | 328 ft | 2 kts | 214° |
| 2026-05-01 11:56 | 38.77968 | -9.12864 | 328 ft | 0 kts | 213° |
| 2026-05-01 11:57 | 38.77956 | -9.12874 | 330 ft | 4 kts | 214° |
| 2026-05-01 11:57 | 38.77927 | -9.12899 | 329 ft | 7 kts | 213° |
| 2026-05-01 11:58 | 38.77867 | -9.12949 | 329 ft | 14 kts | 212° |
| 2026-05-01 11:58 | 38.77784 | -9.13041 | 332 ft | 15 kts | 239° |
| 2026-05-01 11:58 | 38.77746 | -9.13233 | 336 ft | 11 kts | 258° |
| 2026-05-01 11:59 | 38.77743 | -9.13327 | 338 ft | 8 kts | 304° |
| 2026-05-01 11:59 | 38.77771 | -9.13347 | 347 ft | 4 kts | 340° |
| 2026-05-01 11:59 | 38.77867 | -9.13375 | 349 ft | 23 kts | 347° |
| 2026-05-01 12:00 | 38.78101 | -9.13379 | 360 ft | 17 kts | 23° |
| 2026-05-01 12:00 | 38.78252 | -9.13300 | 361 ft | 28 kts | 22° |
| 2026-05-01 12:00 | 38.78534 | -9.13283 | 362 ft | 17 kts | 299° |
| 2026-05-01 12:01 | 38.78554 | -9.13361 | 364 ft | 3 kts | 244° |
| 2026-05-01 12:01 | 38.78539 | -9.13374 | 363 ft | 2 kts | 210° |
| 2026-05-01 12:01 | 38.78533 | -9.13378 | 363 ft | 0 kts | 203° |
| 2026-05-01 12:02 | 38.78530 | -9.13380 | 361 ft | 1 kts | 203° |
| 2026-05-01 12:02 | 38.78384 | -9.13458 | 371 ft | 62 kts | 202° |
| 2026-05-01 12:02 | 38.77731 | -9.13807 | 367 ft | 139 kts | 202° |
| 2026-05-01 12:02 | 38.76692 | -9.14361 | 752 ft | 169 kts | 205° |
| 2026-05-01 12:03 | 38.75613 | -9.14938 | 1786 ft | 168 kts | 205° |
| 2026-05-01 12:03 | 38.74532 | -9.15518 | 2370 ft | 174 kts | 204° |
| 2026-05-01 12:03 | 38.73345 | -9.16155 | 2631 ft | 196 kts | 204° |
| 2026-05-01 12:03 | 38.72015 | -9.16868 | 2878 ft | 219 kts | 203° |
| 2026-05-01 12:04 | 38.70520 | -9.17652 | 3173 ft | 244 kts | 198° |
| 2026-05-01 12:04 | 38.68783 | -9.17831 | 3617 ft | 260 kts | 168° |
| 2026-05-01 12:04 | 38.67178 | -9.16847 | 4276 ft | 265 kts | 138° |
| 2026-05-01 12:04 | 38.66156 | -9.14848 | 5009 ft | 270 kts | 106° |
| 2026-05-01 12:05 | 38.66125 | -9.12444 | 5668 ft | 277 kts | 74° |
| 2026-05-01 12:05 | 38.68632 | -9.08660 | 6899 ft | 289 kts | 41° |
| 2026-05-01 12:05 | 38.70187 | -9.06995 | 7526 ft | 293 kts | 40° |
| 2026-05-01 12:06 | 38.71767 | -9.05320 | 8164 ft | 297 kts | 40° |
| 2026-05-01 12:06 | 38.73363 | -9.03619 | 8814 ft | 300 kts | 41° |
| 2026-05-01 12:06 | 38.74973 | -9.01888 | 9454 ft | 304 kts | 41° |
| 2026-05-01 12:06 | 38.76596 | -9.00128 | 10092 ft | 307 kts | 42° |
| 2026-05-01 12:07 | 38.78250 | -8.98325 | 10439 ft | 322 kts | 42° |
| 2026-05-01 12:07 | 38.79983 | -8.96430 | 10567 ft | 342 kts | 42° |
| 2026-05-01 12:07 | 38.81846 | -8.94399 | 10754 ft | 359 kts | 41° |
| 2026-05-01 12:07 | 38.83766 | -8.92309 | 11209 ft | 365 kts | 41° |
| 2026-05-01 12:08 | 38.85715 | -8.90187 | 11767 ft | 369 kts | 41° |
| 2026-05-01 12:08 | 38.87681 | -8.88045 | 12312 ft | 373 kts | 41° |
| 2026-05-01 12:08 | 38.89672 | -8.85876 | 12860 ft | 377 kts | 41° |
| 2026-05-01 12:08 | 38.91684 | -8.83678 | 13407 ft | 381 kts | 42° |
| 2026-05-01 12:09 | 38.93712 | -8.81457 | 13952 ft | 385 kts | 42° |
| 2026-05-01 12:09 | 38.95759 | -8.79212 | 14455 ft | 389 kts | 41° |
| 2026-05-01 12:09 | 38.97821 | -8.76947 | 14965 ft | 392 kts | 41° |
| 2026-05-01 12:09 | 38.99899 | -8.74661 | 15475 ft | 394 kts | 41° |
| 2026-05-01 12:10 | 39.01992 | -8.72361 | 15976 ft | 397 kts | 41° |
| 2026-05-01 12:10 | 39.06227 | -8.67706 | 16956 ft | 403 kts | 41° |
| 2026-05-01 12:10 | 39.08369 | -8.65347 | 17457 ft | 406 kts | 41° |
| 2026-05-01 12:11 | 39.12694 | -8.60572 | 18409 ft | 412 kts | 41° |
| 2026-05-01 12:11 | 39.14875 | -8.58156 | 18824 ft | 415 kts | 41° |
| 2026-05-01 12:11 | 39.17044 | -8.55754 | 19227 ft | 418 kts | 40° |
| 2026-05-01 12:12 | 39.19259 | -8.53308 | 19637 ft | 421 kts | 40° |
| 2026-05-01 12:12 | 39.21517 | -8.50811 | 20047 ft | 423 kts | 40° |
| 2026-05-01 12:12 | 39.23727 | -8.48365 | 20439 ft | 426 kts | 40° |
| 2026-05-01 12:12 | 39.25985 | -8.45866 | 20837 ft | 428 kts | 40° |
| 2026-05-01 12:13 | 39.28249 | -8.43355 | 21228 ft | 431 kts | 40° |
| 2026-05-01 12:13 | 39.30531 | -8.40820 | 21608 ft | 434 kts | 39° |
| 2026-05-01 12:13 | 39.32825 | -8.38271 | 21996 ft | 436 kts | 39° |
| 2026-05-01 12:13 | 39.35131 | -8.35703 | 22374 ft | 439 kts | 39° |
| 2026-05-01 12:14 | 39.37450 | -8.33117 | 22732 ft | 442 kts | 39° |
| 2026-05-01 12:14 | 39.39783 | -8.30515 | 23099 ft | 444 kts | 39° |
| 2026-05-01 12:14 | 39.42129 | -8.27898 | 23467 ft | 447 kts | 39° |
| 2026-05-01 12:14 | 39.44486 | -8.25267 | 23811 ft | 449 kts | 39° |
| 2026-05-01 12:15 | 39.46859 | -8.22617 | 24114 ft | 452 kts | 39° |
| 2026-05-01 12:15 | 39.49241 | -8.19953 | 24424 ft | 454 kts | 39° |
| 2026-05-01 12:15 | 39.51635 | -8.17273 | 24744 ft | 456 kts | 39° |
| 2026-05-01 12:15 | 39.54039 | -8.14579 | 25042 ft | 458 kts | 38° |
| 2026-05-01 12:16 | 39.56457 | -8.11869 | 25343 ft | 461 kts | 38° |
| 2026-05-01 12:16 | 39.58884 | -8.09144 | 25651 ft | 463 kts | 38° |
| 2026-05-01 12:16 | 39.61320 | -8.06402 | 25953 ft | 465 kts | 38° |
| 2026-05-01 12:16 | 39.63764 | -8.03644 | 26248 ft | 467 kts | 38° |
| 2026-05-01 12:17 | 39.66176 | -8.00902 | 26533 ft | 469 kts | 39° |
| 2026-05-01 12:17 | 39.68586 | -7.98024 | 26818 ft | 472 kts | 40° |
| 2026-05-01 12:17 | 39.70950 | -7.95064 | 27122 ft | 473 kts | 41° |
| 2026-05-01 12:17 | 39.73296 | -7.92046 | 27403 ft | 476 kts | 42° |
| 2026-05-01 12:18 | 39.75643 | -7.89005 | 27692 ft | 477 kts | 41° |
| 2026-05-01 12:18 | 39.78006 | -7.85958 | 27971 ft | 479 kts | 41° |
| 2026-05-01 12:18 | 39.80388 | -7.82917 | 28255 ft | 481 kts | 41° |
| 2026-05-01 12:18 | 39.82787 | -7.79872 | 28527 ft | 483 kts | 41° |
| 2026-05-01 12:19 | 39.85200 | -7.76818 | 28825 ft | 484 kts | 41° |
| 2026-05-01 12:19 | 39.87620 | -7.73766 | 29102 ft | 486 kts | 40° |
| 2026-05-01 12:19 | 39.90057 | -7.70699 | 29369 ft | 488 kts | 40° |
| 2026-05-01 12:19 | 39.92494 | -7.67623 | 29633 ft | 489 kts | 40° |
| 2026-05-01 12:20 | 39.94934 | -7.64527 | 29884 ft | 490 kts | 41° |
| 2026-05-01 12:20 | 39.97378 | -7.61409 | 30141 ft | 492 kts | 41° |
| 2026-05-01 12:20 | 39.99821 | -7.58279 | 30348 ft | 493 kts | 41° |
| 2026-05-01 12:20 | 40.02268 | -7.55134 | 30541 ft | 495 kts | 41° |
| 2026-05-01 12:21 | 40.04724 | -7.51978 | 30721 ft | 496 kts | 41° |
| 2026-05-01 12:21 | 40.07187 | -7.48821 | 30936 ft | 496 kts | 41° |
| 2026-05-01 12:21 | 40.09617 | -7.45716 | 31177 ft | 496 kts | 41° |
| 2026-05-01 12:21 | 40.12080 | -7.42568 | 31413 ft | 495 kts | 41° |
| 2026-05-01 12:22 | 40.14541 | -7.39420 | 31659 ft | 495 kts | 41° |
| 2026-05-01 12:22 | 40.16998 | -7.36272 | 31907 ft | 494 kts | 41° |
| 2026-05-01 12:22 | 40.19447 | -7.33127 | 32153 ft | 494 kts | 41° |
| 2026-05-01 12:22 | 40.21897 | -7.29975 | 32396 ft | 494 kts | 41° |
| 2026-05-01 12:23 | 40.24341 | -7.26823 | 32640 ft | 493 kts | 41° |
| 2026-05-01 12:23 | 40.26784 | -7.23665 | 32877 ft | 493 kts | 41° |
| 2026-05-01 12:23 | 40.29223 | -7.20509 | 33113 ft | 493 kts | 41° |
| 2026-05-01 12:23 | 40.31661 | -7.17355 | 33358 ft | 492 kts | 41° |
| 2026-05-01 12:24 | 40.34096 | -7.14206 | 33598 ft | 492 kts | 41° |
| 2026-05-01 12:24 | 40.36533 | -7.11056 | 33832 ft | 492 kts | 41° |
| 2026-05-01 12:24 | 40.38968 | -7.07906 | 34061 ft | 492 kts | 41° |
| 2026-05-01 12:24 | 40.41398 | -7.04754 | 34156 ft | 489 kts | 41° |
| 2026-05-01 12:25 | 40.48588 | -6.95397 | 34155 ft | 484 kts | 42° |
| 2026-05-01 12:26 | 40.53357 | -6.89175 | 34158 ft | 483 kts | 42° |
| 2026-05-01 12:26 | 40.60461 | -6.79880 | 34151 ft | 482 kts | 42° |
| 2026-05-01 12:27 | 40.67584 | -6.70538 | 34172 ft | 482 kts | 42° |
| 2026-05-01 12:28 | 40.74704 | -6.61182 | 34170 ft | 482 kts | 43° |
| 2026-05-01 12:29 | 40.81805 | -6.51799 | 34180 ft | 481 kts | 43° |
| 2026-05-01 12:29 | 40.88898 | -6.42420 | 34181 ft | 481 kts | 43° |
| 2026-05-01 12:30 | 40.95963 | -6.33027 | 34176 ft | 480 kts | 43° |
| 2026-05-01 12:31 | 41.00688 | -6.26788 | 34177 ft | 479 kts | 41° |
| 2026-05-01 12:31 | 41.05608 | -6.20854 | 34178 ft | 478 kts | 39° |
| 2026-05-01 12:32 | 41.10619 | -6.15070 | 34187 ft | 477 kts | 39° |
| 2026-05-01 12:32 | 41.18017 | -6.06317 | 34182 ft | 477 kts | 41° |
| 2026-05-01 12:33 | 41.22919 | -6.00386 | 34184 ft | 476 kts | 41° |
| 2026-05-01 12:33 | 41.27823 | -5.94464 | 34181 ft | 476 kts | 41° |
| 2026-05-01 12:34 | 41.32724 | -5.88559 | 34190 ft | 475 kts | 41° |
| 2026-05-01 12:34 | 41.37624 | -5.82652 | 34185 ft | 475 kts | 41° |
| 2026-05-01 12:35 | 41.42518 | -5.76738 | 34186 ft | 475 kts | 41° |
| 2026-05-01 12:35 | 41.47400 | -5.70817 | 34188 ft | 474 kts | 41° |
| 2026-05-01 12:36 | 41.52384 | -5.65070 | 34187 ft | 473 kts | 33° |
| 2026-05-01 12:36 | 41.58151 | -5.61085 | 34183 ft | 470 kts | 21° |
| 2026-05-01 12:37 | 41.64183 | -5.57700 | 34183 ft | 470 kts | 21° |
| 2026-05-01 12:37 | 41.70209 | -5.54294 | 34176 ft | 470 kts | 21° |
| 2026-05-01 12:38 | 41.76235 | -5.50877 | 34185 ft | 471 kts | 21° |
| 2026-05-01 12:38 | 41.82266 | -5.47453 | 34176 ft | 471 kts | 21° |
| 2026-05-01 12:39 | 41.88299 | -5.44028 | 34192 ft | 471 kts | 21° |
| 2026-05-01 12:39 | 41.94325 | -5.40600 | 34195 ft | 470 kts | 21° |
| 2026-05-01 12:40 | 42.00351 | -5.37163 | 34184 ft | 470 kts | 22° |
| 2026-05-01 12:40 | 42.06370 | -5.33711 | 34185 ft | 470 kts | 22° |
| 2026-05-01 12:41 | 42.12388 | -5.30265 | 34187 ft | 470 kts | 22° |
| 2026-05-01 12:41 | 42.18401 | -5.26820 | 34187 ft | 470 kts | 22° |
| 2026-05-01 12:42 | 42.24417 | -5.23368 | 34190 ft | 470 kts | 22° |
| 2026-05-01 12:42 | 42.30389 | -5.19929 | 34190 ft | 470 kts | 22° |
| 2026-05-01 12:43 | 42.36396 | -5.16455 | 34188 ft | 470 kts | 22° |
| 2026-05-01 12:43 | 42.42398 | -5.12976 | 34188 ft | 469 kts | 22° |
| 2026-05-01 12:44 | 42.47430 | -5.10063 | 34189 ft | 469 kts | 22° |
| 2026-05-01 12:45 | 42.59400 | -5.03113 | 34191 ft | 469 kts | 22° |
| 2026-05-01 12:45 | 42.65402 | -4.99611 | 34194 ft | 469 kts | 22° |
| 2026-05-01 12:46 | 42.71404 | -4.96100 | 34190 ft | 469 kts | 22° |
| 2026-05-01 12:46 | 42.77400 | -4.92582 | 34188 ft | 469 kts | 22° |
| 2026-05-01 12:47 | 42.83392 | -4.89050 | 34186 ft | 469 kts | 22° |
| 2026-05-01 12:47 | 42.89390 | -4.85517 | 34188 ft | 470 kts | 22° |
| 2026-05-01 12:48 | 42.95392 | -4.81989 | 34186 ft | 470 kts | 22° |
| 2026-05-01 12:48 | 43.01387 | -4.78449 | 34184 ft | 469 kts | 22° |
| 2026-05-01 12:49 | 43.07379 | -4.74893 | 34183 ft | 469 kts | 22° |
| 2026-05-01 12:49 | 43.13373 | -4.71330 | 34182 ft | 470 kts | 22° |
| 2026-05-01 12:50 | 43.19369 | -4.67771 | 34178 ft | 470 kts | 22° |
| 2026-05-01 12:50 | 43.25366 | -4.64207 | 34179 ft | 469 kts | 22° |
| 2026-05-01 12:51 | 43.31356 | -4.60627 | 34180 ft | 469 kts | 22° |
| 2026-05-01 12:52 | 43.40296 | -4.55266 | 34185 ft | 469 kts | 23° |
| 2026-05-01 12:52 | 43.49263 | -4.49869 | 34184 ft | 469 kts | 23° |
| 2026-05-01 12:53 | 43.58226 | -4.44466 | 34181 ft | 469 kts | 23° |
| 2026-05-01 12:54 | 43.64199 | -4.40855 | 34184 ft | 469 kts | 23° |
| 2026-05-01 12:54 | 43.73154 | -4.35421 | 34181 ft | 469 kts | 23° |
| 2026-05-01 12:55 | 43.82105 | -4.29986 | 34176 ft | 468 kts | 23° |
| 2026-05-01 12:56 | 43.88035 | -4.26373 | 34183 ft | 468 kts | 23° |
| 2026-05-01 12:56 | 43.93998 | -4.22728 | 34183 ft | 468 kts | 23° |
| 2026-05-01 12:57 | 43.99955 | -4.19070 | 34184 ft | 468 kts | 23° |
| 2026-05-01 12:57 | 44.08881 | -4.13584 | 34189 ft | 467 kts | 23° |
| 2026-05-01 12:58 | 44.14827 | -4.09930 | 34193 ft | 467 kts | 23° |
| 2026-05-01 12:59 | 44.23730 | -4.04430 | 34193 ft | 466 kts | 23° |
| 2026-05-01 12:59 | 44.32583 | -3.98823 | 34188 ft | 466 kts | 28° |
| 2026-05-01 13:00 | 44.40668 | -3.91270 | 34198 ft | 466 kts | 34° |
| 2026-05-01 13:01 | 44.48672 | -3.83531 | 34211 ft | 466 kts | 34° |
| 2026-05-01 13:02 | 44.56630 | -3.75828 | 34201 ft | 465 kts | 34° |
| 2026-05-01 13:07 | 45.14679 | -3.18823 | 34226 ft | 460 kts | 33° |
| 2026-05-01 13:08 | 45.19909 | -3.13617 | 34228 ft | 459 kts | 33° |
| 2026-05-01 13:08 | 45.25091 | -3.08422 | 34232 ft | 459 kts | 33° |
| 2026-05-01 13:09 | 45.30309 | -3.03213 | 34235 ft | 458 kts | 33° |
| 2026-05-01 13:09 | 45.35508 | -2.97968 | 34234 ft | 458 kts | 34° |
| 2026-05-01 13:10 | 45.40663 | -2.92633 | 34235 ft | 458 kts | 34° |
| 2026-05-01 13:10 | 45.45802 | -2.87277 | 34238 ft | 458 kts | 34° |
| 2026-05-01 13:11 | 45.50954 | -2.81949 | 34243 ft | 457 kts | 34° |
| 2026-05-01 13:11 | 45.56096 | -2.76617 | 34239 ft | 457 kts | 34° |
| 2026-05-01 13:12 | 45.61229 | -2.71270 | 34242 ft | 456 kts | 34° |
| 2026-05-01 13:12 | 45.66405 | -2.65877 | 34223 ft | 466 kts | 34° |
| 2026-05-01 13:13 | 45.71683 | -2.60360 | 34224 ft | 473 kts | 34° |
| 2026-05-01 13:13 | 45.77000 | -2.54798 | 34434 ft | 473 kts | 34° |
| 2026-05-01 13:13 | 45.79654 | -2.52016 | 34614 ft | 472 kts | 34° |
| 2026-05-01 13:14 | 45.82302 | -2.49237 | 34778 ft | 472 kts | 34° |
| 2026-05-01 13:14 | 45.84947 | -2.46459 | 34937 ft | 472 kts | 34° |
| 2026-05-01 13:14 | 45.87591 | -2.43670 | 35092 ft | 471 kts | 34° |
| 2026-05-01 13:14 | 45.90227 | -2.40880 | 35244 ft | 471 kts | 35° |
| 2026-05-01 13:15 | 45.92867 | -2.38085 | 35404 ft | 471 kts | 35° |
| 2026-05-01 13:15 | 45.95508 | -2.35291 | 35563 ft | 471 kts | 35° |
| 2026-05-01 13:15 | 45.98110 | -2.32535 | 35714 ft | 471 kts | 35° |
| 2026-05-01 13:15 | 46.00747 | -2.29736 | 35856 ft | 471 kts | 35° |
| 2026-05-01 13:16 | 46.03381 | -2.26938 | 36013 ft | 471 kts | 35° |
| 2026-05-01 13:16 | 46.05918 | -2.23852 | 36173 ft | 472 kts | 44° |
| 2026-05-01 13:16 | 46.08148 | -2.20454 | 36235 ft | 474 kts | 46° |
| 2026-05-01 13:17 | 46.17116 | -2.06510 | 36226 ft | 474 kts | 46° |
| 2026-05-01 13:18 | 46.23845 | -1.96016 | 36221 ft | 475 kts | 46° |
| 2026-05-01 13:18 | 46.28330 | -1.88993 | 36235 ft | 476 kts | 46° |
| 2026-05-01 13:19 | 46.32827 | -1.81950 | 36235 ft | 477 kts | 47° |
| 2026-05-01 13:20 | 46.39567 | -1.71342 | 36235 ft | 478 kts | 47° |
| 2026-05-01 13:20 | 46.44056 | -1.64245 | 36238 ft | 478 kts | 47° |
| 2026-05-01 13:21 | 46.50796 | -1.53563 | 36241 ft | 478 kts | 47° |
| 2026-05-01 13:21 | 46.55283 | -1.46425 | 36242 ft | 479 kts | 47° |
| 2026-05-01 13:22 | 46.59767 | -1.39275 | 36246 ft | 479 kts | 47° |
| 2026-05-01 13:22 | 46.64212 | -1.32149 | 36247 ft | 479 kts | 47° |
| 2026-05-01 13:23 | 46.68675 | -1.24955 | 36243 ft | 479 kts | 47° |
| 2026-05-01 13:23 | 46.73131 | -1.17742 | 36242 ft | 479 kts | 47° |
| 2026-05-01 13:24 | 46.77578 | -1.10517 | 36236 ft | 479 kts | 47° |
| 2026-05-01 13:25 | 46.84249 | -0.99670 | 36226 ft | 479 kts | 47° |
| 2026-05-01 13:25 | 46.88693 | -0.92422 | 36221 ft | 479 kts | 48° |
| 2026-05-01 13:26 | 46.93127 | -0.85162 | 36218 ft | 478 kts | 48° |
| 2026-05-01 13:26 | 46.97555 | -0.77899 | 36218 ft | 478 kts | 48° |
| 2026-05-01 13:27 | 47.01981 | -0.70622 | 36220 ft | 478 kts | 48° |
| 2026-05-01 13:27 | 47.08577 | -0.59746 | 36220 ft | 478 kts | 47° |
| 2026-05-01 13:28 | 47.15191 | -0.48812 | 36222 ft | 477 kts | 48° |
| 2026-05-01 13:29 | 47.23969 | -0.34177 | 36223 ft | 477 kts | 47° |
| 2026-05-01 13:31 | 47.38180 | -0.13747 | 36238 ft | 476 kts | 43° |
| 2026-05-01 13:32 | 47.49954 | 0.03418 | 36230 ft | 475 kts | 43° |
| 2026-05-01 13:33 | 47.61705 | 0.20622 | 36237 ft | 475 kts | 43° |
| 2026-05-01 13:34 | 47.71056 | 0.34372 | 36239 ft | 475 kts | 43° |
| 2026-05-01 13:35 | 47.78110 | 0.44791 | 36245 ft | 474 kts | 44° |
| 2026-05-01 13:36 | 47.85081 | 0.55142 | 36227 ft | 474 kts | 44° |
| 2026-05-01 13:36 | 47.92073 | 0.65561 | 36235 ft | 474 kts | 44° |
| 2026-05-01 13:37 | 47.95968 | 0.71393 | 36234 ft | 474 kts | 44° |
| 2026-05-01 13:37 | 48.01373 | 0.79484 | 36234 ft | 473 kts | 45° |
| 2026-05-01 13:38 | 48.07556 | 0.88778 | 36234 ft | 474 kts | 45° |
| 2026-05-01 13:39 | 48.12199 | 0.95779 | 36236 ft | 474 kts | 45° |
| 2026-05-01 13:39 | 48.16836 | 1.02796 | 36231 ft | 474 kts | 45° |
| 2026-05-01 13:40 | 48.21449 | 1.09840 | 36230 ft | 473 kts | 49° |
| 2026-05-01 13:40 | 48.25622 | 1.17466 | 36235 ft | 473 kts | 52° |
| 2026-05-01 13:41 | 48.29782 | 1.25103 | 36240 ft | 472 kts | 52° |
| 2026-05-01 13:41 | 48.33939 | 1.32727 | 36237 ft | 471 kts | 52° |
| 2026-05-01 13:42 | 48.38074 | 1.40357 | 36232 ft | 470 kts | 52° |
| 2026-05-01 13:42 | 48.42196 | 1.47997 | 36239 ft | 470 kts | 53° |
| 2026-05-01 13:43 | 48.46306 | 1.55635 | 36233 ft | 469 kts | 53° |
| 2026-05-01 13:43 | 48.50410 | 1.63277 | 36239 ft | 469 kts | 53° |
| 2026-05-01 13:44 | 48.54503 | 1.70926 | 36236 ft | 468 kts | 53° |
| 2026-05-01 13:44 | 48.58588 | 1.78576 | 36236 ft | 468 kts | 53° |
| 2026-05-01 13:45 | 48.62640 | 1.86174 | 36236 ft | 467 kts | 54° |
| 2026-05-01 13:45 | 48.66706 | 1.93841 | 36247 ft | 467 kts | 54° |
| 2026-05-01 13:46 | 48.70760 | 2.01513 | 36242 ft | 467 kts | 54° |
| 2026-05-01 13:46 | 48.74569 | 2.09417 | 36232 ft | 462 kts | 64° |
| 2026-05-01 13:47 | 48.76859 | 2.18388 | 36241 ft | 455 kts | 78° |
| 2026-05-01 13:47 | 48.78536 | 2.27632 | 36235 ft | 455 kts | 78° |
| 2026-05-01 13:48 | 48.80200 | 2.36890 | 36239 ft | 455 kts | 78° |
| 2026-05-01 13:48 | 48.81837 | 2.46089 | 36234 ft | 455 kts | 78° |
| 2026-05-01 13:49 | 48.83475 | 2.55356 | 36231 ft | 455 kts | 78° |
| 2026-05-01 13:49 | 48.85110 | 2.64620 | 36231 ft | 454 kts | 78° |
| 2026-05-01 13:50 | 48.86739 | 2.73891 | 36234 ft | 454 kts | 78° |
| 2026-05-01 13:50 | 48.88354 | 2.83168 | 36228 ft | 454 kts | 78° |
| 2026-05-01 13:51 | 48.89959 | 2.92449 | 36237 ft | 454 kts | 78° |
| 2026-05-01 13:51 | 48.91568 | 3.01728 | 36232 ft | 454 kts | 78° |
| 2026-05-01 13:52 | 48.93169 | 3.11025 | 36228 ft | 454 kts | 78° |
| 2026-05-01 13:52 | 48.94766 | 3.20316 | 36229 ft | 454 kts | 78° |
| 2026-05-01 13:53 | 48.96348 | 3.29624 | 36233 ft | 454 kts | 78° |
| 2026-05-01 13:53 | 48.98702 | 3.43595 | 36238 ft | 454 kts | 79° |
| 2026-05-01 13:54 | 49.00269 | 3.52920 | 36240 ft | 455 kts | 78° |
| 2026-05-01 13:54 | 49.01821 | 3.62194 | 36239 ft | 455 kts | 78° |
| 2026-05-01 13:55 | 49.03376 | 3.71535 | 36244 ft | 455 kts | 78° |
| 2026-05-01 13:55 | 49.04923 | 3.80891 | 36249 ft | 455 kts | 79° |
| 2026-05-01 13:56 | 49.06462 | 3.90263 | 36254 ft | 456 kts | 79° |
| 2026-05-01 13:56 | 49.07996 | 3.99639 | 36257 ft | 456 kts | 79° |
| 2026-05-01 13:57 | 49.09527 | 4.09038 | 36265 ft | 457 kts | 79° |
| 2026-05-01 13:57 | 49.11041 | 4.18448 | 36264 ft | 457 kts | 79° |
| 2026-05-01 13:58 | 49.12552 | 4.27867 | 36259 ft | 457 kts | 79° |
| 2026-05-01 13:58 | 49.14189 | 4.37249 | 36263 ft | 459 kts | 72° |
| 2026-05-01 13:59 | 49.16636 | 4.46281 | 36260 ft | 460 kts | 70° |
| 2026-05-01 13:59 | 49.19072 | 4.55268 | 36263 ft | 461 kts | 70° |
| 2026-05-01 14:00 | 49.21518 | 4.64322 | 36266 ft | 461 kts | 70° |
| 2026-05-01 14:00 | 49.23953 | 4.73382 | 36264 ft | 460 kts | 70° |
| 2026-05-01 14:01 | 49.26387 | 4.82455 | 36270 ft | 461 kts | 70° |
| 2026-05-01 14:01 | 49.28821 | 4.91528 | 36273 ft | 461 kts | 70° |
| 2026-05-01 14:02 | 49.31248 | 5.00613 | 36269 ft | 460 kts | 70° |
| 2026-05-01 14:02 | 49.33658 | 5.09695 | 36276 ft | 460 kts | 70° |
| 2026-05-01 14:03 | 49.36047 | 5.18811 | 36284 ft | 461 kts | 70° |
| 2026-05-01 14:03 | 49.38438 | 5.27929 | 36285 ft | 460 kts | 70° |
| 2026-05-01 14:04 | 49.40817 | 5.37049 | 36282 ft | 460 kts | 70° |